sensor_id;sensor_type;location;lat;lon;timestamp;temperature;humidity
42201;DHT22;27869;51.442;7.540;2023-02-28T00:01:08;0.80;99.90
42201;DHT22;27869;51.442;7.540;2023-02-28T00:03:35;0.80;99.90
42201;DHT22;27869;51.442;7.540;2023-02-28T00:06:02;0.80;99.90
42201;DHT22;27869;51.442;7.540;2023-02-28T00:08:31;0.80;99.90
42201;DHT22;27869;51.442;7.540;2023-02-28T00:11:01;0.80;99.90
42201;DHT22;27869;51.442;7.540;2023-02-28T00:13:28;0.80;99.90
42201;DHT22;27869;51.442;7.540;2023-02-28T00:16:06;0.80;99.90
42201;DHT22;27869;51.442;7.540;2023-02-28T00:18:33;0.80;99.90
42201;DHT22;27869;51.442;7.540;2023-02-28T00:21:00;0.80;99.90
42201;DHT22;27869;51.442;7.540;2023-02-28T00:23:29;0.80;99.90
42201;DHT22;27869;51.442;7.540;2023-02-28T00:25:57;0.80;99.90
42201;DHT22;27869;51.442;7.540;2023-02-28T00:28:24;0.70;99.90
42201;DHT22;27869;51.442;7.540;2023-02-28T00:30:51;0.70;99.90
42201;DHT22;27869;51.442;7.540;2023-02-28T00:33:18;0.70;99.90
42201;DHT22;27869;51.442;7.540;2023-02-28T00:35:45;0.60;99.90
42201;DHT22;27869;51.442;7.540;2023-02-28T00:38:14;0.60;99.90
42201;DHT22;27869;51.442;7.540;2023-02-28T00:40:41;0.50;99.90
42201;DHT22;27869;51.442;7.540;2023-02-28T00:43:09;0.50;99.90
42201;DHT22;27869;51.442;7.540;2023-02-28T00:45:36;0.40;99.90
42201;DHT22;27869;51.442;7.540;2023-02-28T00:48:03;0.40;99.90
42201;DHT22;27869;51.442;7.540;2023-02-28T00:50:30;0.30;99.90
42201;DHT22;27869;51.442;7.540;2023-02-28T00:52:57;0.30;99.90
42201;DHT22;27869;51.442;7.540;2023-02-28T00:55:24;0.20;99.90
42201;DHT22;27869;51.442;7.540;2023-02-28T00:57:51;0.20;99.90
42201;DHT22;27869;51.442;7.540;2023-02-28T01:00:20;0.10;99.90
42201;DHT22;27869;51.442;7.540;2023-02-28T01:02:47;0.10;99.90
42201;DHT22;27869;51.442;7.540;2023-02-28T01:05:14;0.10;99.90
42201;DHT22;27869;51.442;7.540;2023-02-28T01:07:40;0.10;99.90
42201;DHT22;27869;51.442;7.540;2023-02-28T01:10:09;0.00;99.90
42201;DHT22;27869;51.442;7.540;2023-02-28T01:12:36;0.00;99.90
42201;DHT22;27869;51.442;7.540;2023-02-28T01:15:04;-0.10;99.90
42201;DHT22;27869;51.442;7.540;2023-02-28T01:17:32;-0.10;99.90
42201;DHT22;27869;51.442;7.540;2023-02-28T01:19:59;-0.20;99.90
42201;DHT22;27869;51.442;7.540;2023-02-28T01:22:26;-0.20;99.90
42201;DHT22;27869;51.442;7.540;2023-02-28T01:24:53;-0.30;99.90
42201;DHT22;27869;51.442;7.540;2023-02-28T01:27:20;-0.30;99.90
42201;DHT22;27869;51.442;7.540;2023-02-28T01:29:50;-0.30;99.90
42201;DHT22;27869;51.442;7.540;2023-02-28T01:32:17;-0.40;99.90
42201;DHT22;27869;51.442;7.540;2023-02-28T01:34:45;-0.50;99.90
42201;DHT22;27869;51.442;7.540;2023-02-28T01:37:12;-0.50;99.90
42201;DHT22;27869;51.442;7.540;2023-02-28T01:39:39;-0.50;99.90
42201;DHT22;27869;51.442;7.540;2023-02-28T01:42:07;-0.60;99.90
42201;DHT22;27869;51.442;7.540;2023-02-28T01:44:55;-0.60;99.90
42201;DHT22;27869;51.442;7.540;2023-02-28T01:47:24;-0.60;99.90
42201;DHT22;27869;51.442;7.540;2023-02-28T01:49:53;-0.60;99.90
42201;DHT22;27869;51.442;7.540;2023-02-28T01:52:21;-0.70;99.90
42201;DHT22;27869;51.442;7.540;2023-02-28T01:54:52;-0.70;99.90
42201;DHT22;27869;51.442;7.540;2023-02-28T01:57:24;-0.70;99.90
42201;DHT22;27869;51.442;7.540;2023-02-28T01:59:54;-0.70;99.90
42201;DHT22;27869;51.442;7.540;2023-02-28T02:02:24;-0.80;99.90
42201;DHT22;27869;51.442;7.540;2023-02-28T02:04:56;-0.80;99.90
42201;DHT22;27869;51.442;7.540;2023-02-28T02:07:29;-0.80;99.90
42201;DHT22;27869;51.442;7.540;2023-02-28T02:10:04;-0.80;99.90
42201;DHT22;27869;51.442;7.540;2023-02-28T02:12:43;-0.90;99.90
42201;DHT22;27869;51.442;7.540;2023-02-28T02:15:16;-0.80;99.90
42201;DHT22;27869;51.442;7.540;2023-02-28T02:17:50;-0.90;99.90
42201;DHT22;27869;51.442;7.540;2023-02-28T02:20:51;-0.90;99.90
42201;DHT22;27869;51.442;7.540;2023-02-28T02:35:40;-1.10;99.90
42201;DHT22;27869;51.442;7.540;2023-02-28T02:38:12;-1.10;99.90
42201;DHT22;27869;51.442;7.540;2023-02-28T02:40:44;-1.10;99.90
42201;DHT22;27869;51.442;7.540;2023-02-28T02:43:16;-1.10;99.90
42201;DHT22;27869;51.442;7.540;2023-02-28T02:45:49;-1.10;99.90
42201;DHT22;27869;51.442;7.540;2023-02-28T02:48:20;-1.20;99.90
42201;DHT22;27869;51.442;7.540;2023-02-28T02:50:54;-1.10;99.90
42201;DHT22;27869;51.442;7.540;2023-02-28T02:53:25;-1.10;99.90
42201;DHT22;27869;51.442;7.540;2023-02-28T02:55:55;-1.10;99.90
42201;DHT22;27869;51.442;7.540;2023-02-28T02:58:26;-1.10;99.90
42201;DHT22;27869;51.442;7.540;2023-02-28T03:00:57;-1.10;99.90
42201;DHT22;27869;51.442;7.540;2023-02-28T03:03:25;-1.10;99.90
42201;DHT22;27869;51.442;7.540;2023-02-28T03:05:58;-1.10;99.90
42201;DHT22;27869;51.442;7.540;2023-02-28T03:08:26;-1.10;99.90
42201;DHT22;27869;51.442;7.540;2023-02-28T03:10:56;-1.10;99.90
42201;DHT22;27869;51.442;7.540;2023-02-28T03:14:06;-1.10;99.90
42201;DHT22;27869;51.442;7.540;2023-02-28T03:16:45;-1.10;99.90
42201;DHT22;27869;51.442;7.540;2023-02-28T03:19:39;-1.10;99.90
42201;DHT22;27869;51.442;7.540;2023-02-28T03:22:29;-1.10;99.90
42201;DHT22;27869;51.442;7.540;2023-02-28T03:25:01;-1.20;99.90
42201;DHT22;27869;51.442;7.540;2023-02-28T03:27:36;-1.20;99.90
42201;DHT22;27869;51.442;7.540;2023-02-28T03:30:10;-1.30;99.90
42201;DHT22;27869;51.442;7.540;2023-02-28T03:32:42;-1.30;99.90
42201;DHT22;27869;51.442;7.540;2023-02-28T03:35:12;-1.40;99.90
42201;DHT22;27869;51.442;7.540;2023-02-28T03:37:44;-1.40;99.90
42201;DHT22;27869;51.442;7.540;2023-02-28T03:40:14;-1.40;99.90
42201;DHT22;27869;51.442;7.540;2023-02-28T03:42:45;-1.40;99.90
42201;DHT22;27869;51.442;7.540;2023-02-28T03:45:15;-1.50;99.90
42201;DHT22;27869;51.442;7.540;2023-02-28T03:47:48;-1.50;99.90
42201;DHT22;27869;51.442;7.540;2023-02-28T03:50:20;-1.50;99.90
42201;DHT22;27869;51.442;7.540;2023-02-28T03:52:54;-1.60;99.90
42201;DHT22;27869;51.442;7.540;2023-02-28T03:55:28;-1.60;99.90
42201;DHT22;27869;51.442;7.540;2023-02-28T03:58:01;-1.70;99.90
42201;DHT22;27869;51.442;7.540;2023-02-28T04:00:31;-1.70;99.90
42201;DHT22;27869;51.442;7.540;2023-02-28T04:03:00;-1.70;99.90
42201;DHT22;27869;51.442;7.540;2023-02-28T04:05:28;-1.70;99.90
42201;DHT22;27869;51.442;7.540;2023-02-28T04:08:05;-1.70;99.90
42201;DHT22;27869;51.442;7.540;2023-02-28T04:10:32;-1.80;99.90
42201;DHT22;27869;51.442;7.540;2023-02-28T04:12:59;-1.80;99.90
42201;DHT22;27869;51.442;7.540;2023-02-28T04:15:26;-1.80;99.90
42201;DHT22;27869;51.442;7.540;2023-02-28T04:17:53;-1.80;99.90
42201;DHT22;27869;51.442;7.540;2023-02-28T04:20:20;-1.80;99.90
42201;DHT22;27869;51.442;7.540;2023-02-28T04:22:47;-1.90;99.90
42201;DHT22;27869;51.442;7.540;2023-02-28T04:25:15;-1.90;99.90
42201;DHT22;27869;51.442;7.540;2023-02-28T04:27:42;-1.90;99.90
42201;DHT22;27869;51.442;7.540;2023-02-28T04:30:11;-2.00;99.90
42201;DHT22;27869;51.442;7.540;2023-02-28T04:32:38;-2.00;99.90
42201;DHT22;27869;51.442;7.540;2023-02-28T04:35:05;-2.00;99.90
42201;DHT22;27869;51.442;7.540;2023-02-28T04:37:32;-2.10;99.90
42201;DHT22;27869;51.442;7.540;2023-02-28T04:40:00;-2.10;99.90
42201;DHT22;27869;51.442;7.540;2023-02-28T04:42:29;-2.10;99.90
42201;DHT22;27869;51.442;7.540;2023-02-28T04:45:01;-2.10;99.90
42201;DHT22;27869;51.442;7.540;2023-02-28T04:47:28;-2.10;99.90
42201;DHT22;27869;51.442;7.540;2023-02-28T04:49:55;-2.10;99.90
42201;DHT22;27869;51.442;7.540;2023-02-28T04:52:22;-2.20;99.90
42201;DHT22;27869;51.442;7.540;2023-02-28T04:54:48;-2.20;99.90
42201;DHT22;27869;51.442;7.540;2023-02-28T04:57:15;-2.20;99.90
42201;DHT22;27869;51.442;7.540;2023-02-28T04:59:43;-2.20;99.90
42201;DHT22;27869;51.442;7.540;2023-02-28T05:02:10;-2.30;99.90
42201;DHT22;27869;51.442;7.540;2023-02-28T05:04:37;-2.30;99.90
42201;DHT22;27869;51.442;7.540;2023-02-28T05:07:04;-2.30;99.90
42201;DHT22;27869;51.442;7.540;2023-02-28T05:09:31;-2.30;99.90
42201;DHT22;27869;51.442;7.540;2023-02-28T05:11:59;-2.40;99.90
42201;DHT22;27869;51.442;7.540;2023-02-28T05:14:26;-2.40;99.90
42201;DHT22;27869;51.442;7.540;2023-02-28T05:16:54;-2.40;99.90
42201;DHT22;27869;51.442;7.540;2023-02-28T05:19:21;-2.50;99.90
42201;DHT22;27869;51.442;7.540;2023-02-28T05:21:50;-2.50;99.90
42201;DHT22;27869;51.442;7.540;2023-02-28T05:24:18;-2.50;99.90
42201;DHT22;27869;51.442;7.540;2023-02-28T05:26:49;-2.50;99.90
42201;DHT22;27869;51.442;7.540;2023-02-28T05:29:17;-2.50;99.90
42201;DHT22;27869;51.442;7.540;2023-02-28T05:31:44;-2.50;99.90
42201;DHT22;27869;51.442;7.540;2023-02-28T05:34:13;-2.50;99.90
42201;DHT22;27869;51.442;7.540;2023-02-28T05:36:41;-2.50;99.90
42201;DHT22;27869;51.442;7.540;2023-02-28T05:39:08;-2.60;99.90
42201;DHT22;27869;51.442;7.540;2023-02-28T05:41:39;-2.60;99.90
42201;DHT22;27869;51.442;7.540;2023-02-28T05:44:06;-2.60;99.90
42201;DHT22;27869;51.442;7.540;2023-02-28T05:46:33;-2.70;99.90
42201;DHT22;27869;51.442;7.540;2023-02-28T05:49:00;-2.70;99.90
42201;DHT22;27869;51.442;7.540;2023-02-28T05:51:28;-2.70;99.90
42201;DHT22;27869;51.442;7.540;2023-02-28T05:53:58;-2.70;99.90
42201;DHT22;27869;51.442;7.540;2023-02-28T05:56:25;-2.70;99.90
42201;DHT22;27869;51.442;7.540;2023-02-28T05:58:52;-2.80;99.90
42201;DHT22;27869;51.442;7.540;2023-02-28T06:01:22;-2.80;99.90
42201;DHT22;27869;51.442;7.540;2023-02-28T06:03:49;-2.80;99.90
42201;DHT22;27869;51.442;7.540;2023-02-28T06:06:16;-2.80;99.90
42201;DHT22;27869;51.442;7.540;2023-02-28T06:08:44;-2.80;99.90
42201;DHT22;27869;51.442;7.540;2023-02-28T06:11:11;-2.90;99.90
42201;DHT22;27869;51.442;7.540;2023-02-28T06:13:39;-2.90;99.90
42201;DHT22;27869;51.442;7.540;2023-02-28T06:16:07;-2.90;99.90
42201;DHT22;27869;51.442;7.540;2023-02-28T06:18:34;-2.90;99.90
42201;DHT22;27869;51.442;7.540;2023-02-28T06:21:01;-2.90;99.90
42201;DHT22;27869;51.442;7.540;2023-02-28T06:23:28;-2.90;99.90
42201;DHT22;27869;51.442;7.540;2023-02-28T06:25:56;-2.90;99.90
42201;DHT22;27869;51.442;7.540;2023-02-28T06:28:24;-2.90;99.90
42201;DHT22;27869;51.442;7.540;2023-02-28T06:30:51;-3.00;99.90
42201;DHT22;27869;51.442;7.540;2023-02-28T06:33:18;-3.00;99.90
42201;DHT22;27869;51.442;7.540;2023-02-28T06:35:47;-2.90;99.90
42201;DHT22;27869;51.442;7.540;2023-02-28T06:38:14;-3.00;99.90
42201;DHT22;27869;51.442;7.540;2023-02-28T06:40:41;-2.90;99.90
42201;DHT22;27869;51.442;7.540;2023-02-28T06:43:10;-3.00;99.90
42201;DHT22;27869;51.442;7.540;2023-02-28T06:45:41;-3.00;99.90
42201;DHT22;27869;51.442;7.540;2023-02-28T06:48:08;-3.00;99.90
42201;DHT22;27869;51.442;7.540;2023-02-28T06:50:35;-3.00;99.90
42201;DHT22;27869;51.442;7.540;2023-02-28T06:53:03;-3.00;99.90
42201;DHT22;27869;51.442;7.540;2023-02-28T06:55:30;-3.00;99.90
42201;DHT22;27869;51.442;7.540;2023-02-28T06:57:57;-3.00;99.90
42201;DHT22;27869;51.442;7.540;2023-02-28T07:00:27;-3.00;99.90
42201;DHT22;27869;51.442;7.540;2023-02-28T07:02:54;-3.00;99.90
42201;DHT22;27869;51.442;7.540;2023-02-28T07:05:21;-3.00;99.90
42201;DHT22;27869;51.442;7.540;2023-02-28T07:07:48;-3.00;99.90
42201;DHT22;27869;51.442;7.540;2023-02-28T07:10:17;-3.00;99.90
42201;DHT22;27869;51.442;7.540;2023-02-28T07:12:45;-2.90;99.90
42201;DHT22;27869;51.442;7.540;2023-02-28T07:15:12;-2.90;99.90
42201;DHT22;27869;51.442;7.540;2023-02-28T07:17:40;-2.90;99.90
42201;DHT22;27869;51.442;7.540;2023-02-28T07:20:08;-2.80;99.90
42201;DHT22;27869;51.442;7.540;2023-02-28T07:22:35;-2.80;99.90
42201;DHT22;27869;51.442;7.540;2023-02-28T07:25:02;-2.80;99.90
42201;DHT22;27869;51.442;7.540;2023-02-28T07:27:29;-2.80;99.90
42201;DHT22;27869;51.442;7.540;2023-02-28T07:29:56;-2.70;99.90
42201;DHT22;27869;51.442;7.540;2023-02-28T07:32:27;-2.70;99.90
42201;DHT22;27869;51.442;7.540;2023-02-28T07:34:55;-2.60;99.90
42201;DHT22;27869;51.442;7.540;2023-02-28T07:37:22;-2.60;99.90
42201;DHT22;27869;51.442;7.540;2023-02-28T07:39:49;-2.50;99.90
42201;DHT22;27869;51.442;7.540;2023-02-28T07:42:16;-2.50;99.90
42201;DHT22;27869;51.442;7.540;2023-02-28T07:44:43;-2.40;99.90
42201;DHT22;27869;51.442;7.540;2023-02-28T07:47:10;-2.40;99.90
42201;DHT22;27869;51.442;7.540;2023-02-28T07:49:37;-2.30;99.90
42201;DHT22;27869;51.442;7.540;2023-02-28T07:52:06;-2.20;99.90
42201;DHT22;27869;51.442;7.540;2023-02-28T07:54:33;-2.20;99.90
42201;DHT22;27869;51.442;7.540;2023-02-28T07:57:00;-2.10;99.90
42201;DHT22;27869;51.442;7.540;2023-02-28T07:59:27;-2.10;99.90
42201;DHT22;27869;51.442;7.540;2023-02-28T08:01:54;-2.00;99.90
42201;DHT22;27869;51.442;7.540;2023-02-28T08:04:23;-1.90;99.90
42201;DHT22;27869;51.442;7.540;2023-02-28T08:06:50;-1.90;99.90
42201;DHT22;27869;51.442;7.540;2023-02-28T08:09:20;-1.90;99.90
42201;DHT22;27869;51.442;7.540;2023-02-28T08:11:47;-1.80;99.90
42201;DHT22;27869;51.442;7.540;2023-02-28T08:14:14;-1.70;99.90
42201;DHT22;27869;51.442;7.540;2023-02-28T08:16:41;-1.70;99.90
42201;DHT22;27869;51.442;7.540;2023-02-28T08:19:08;-1.60;99.90
42201;DHT22;27869;51.442;7.540;2023-02-28T08:21:35;-1.60;99.90
42201;DHT22;27869;51.442;7.540;2023-02-28T08:24:02;-1.50;99.90
42201;DHT22;27869;51.442;7.540;2023-02-28T08:26:30;-1.40;99.90
42201;DHT22;27869;51.442;7.540;2023-02-28T08:28:57;-1.40;99.90
42201;DHT22;27869;51.442;7.540;2023-02-28T08:31:24;-1.30;99.90
42201;DHT22;27869;51.442;7.540;2023-02-28T08:33:51;-1.20;99.90
42201;DHT22;27869;51.442;7.540;2023-02-28T08:36:19;-1.20;99.90
42201;DHT22;27869;51.442;7.540;2023-02-28T08:38:46;-1.00;99.90
42201;DHT22;27869;51.442;7.540;2023-02-28T08:41:13;-0.90;99.90
42201;DHT22;27869;51.442;7.540;2023-02-28T08:43:41;-0.80;99.90
42201;DHT22;27869;51.442;7.540;2023-02-28T08:46:11;-0.70;99.90
42201;DHT22;27869;51.442;7.540;2023-02-28T08:48:39;-0.60;99.90
42201;DHT22;27869;51.442;7.540;2023-02-28T08:51:07;-0.60;99.90
42201;DHT22;27869;51.442;7.540;2023-02-28T08:53:35;-0.50;99.90
42201;DHT22;27869;51.442;7.540;2023-02-28T08:56:05;-0.50;99.90
42201;DHT22;27869;51.442;7.540;2023-02-28T08:58:33;-0.40;99.90
42201;DHT22;27869;51.442;7.540;2023-02-28T09:01:07;-0.30;99.90
42201;DHT22;27869;51.442;7.540;2023-02-28T09:03:35;-0.30;99.90
42201;DHT22;27869;51.442;7.540;2023-02-28T09:06:02;-0.30;99.90
42201;DHT22;27869;51.442;7.540;2023-02-28T09:08:30;-0.20;99.90
42201;DHT22;27869;51.442;7.540;2023-02-28T09:10:58;-0.20;99.90
42201;DHT22;27869;51.442;7.540;2023-02-28T09:13:25;-0.20;99.90
42201;DHT22;27869;51.442;7.540;2023-02-28T09:15:52;-0.10;99.90
42201;DHT22;27869;51.442;7.540;2023-02-28T09:18:21;-0.10;99.90
42201;DHT22;27869;51.442;7.540;2023-02-28T09:20:48;0.00;99.90
42201;DHT22;27869;51.442;7.540;2023-02-28T09:23:16;0.00;99.90
42201;DHT22;27869;51.442;7.540;2023-02-28T09:25:47;0.10;99.90
42201;DHT22;27869;51.442;7.540;2023-02-28T09:28:15;0.20;99.90
42201;DHT22;27869;51.442;7.540;2023-02-28T09:30:43;0.20;99.90
42201;DHT22;27869;51.442;7.540;2023-02-28T09:33:11;0.30;99.90
42201;DHT22;27869;51.442;7.540;2023-02-28T09:35:39;0.30;99.90
42201;DHT22;27869;51.442;7.540;2023-02-28T09:38:06;0.30;99.90
42201;DHT22;27869;51.442;7.540;2023-02-28T09:40:36;0.40;99.90
42201;DHT22;27869;51.442;7.540;2023-02-28T09:43:04;0.50;99.90
42201;DHT22;27869;51.442;7.540;2023-02-28T09:45:33;0.50;99.90
42201;DHT22;27869;51.442;7.540;2023-02-28T09:48:04;0.50;99.90
42201;DHT22;27869;51.442;7.540;2023-02-28T09:50:36;0.60;99.90
42201;DHT22;27869;51.442;7.540;2023-02-28T09:53:19;0.70;99.90
42201;DHT22;27869;51.442;7.540;2023-02-28T09:55:49;0.80;99.90
42201;DHT22;27869;51.442;7.540;2023-02-28T09:58:23;0.90;99.90
42201;DHT22;27869;51.442;7.540;2023-02-28T10:00:58;0.90;99.90
42201;DHT22;27869;51.442;7.540;2023-02-28T10:03:31;1.00;99.90
42201;DHT22;27869;51.442;7.540;2023-02-28T10:06:05;1.10;99.90
42201;DHT22;27869;51.442;7.540;2023-02-28T10:08:37;1.20;99.90
42201;DHT22;27869;51.442;7.540;2023-02-28T10:11:10;1.40;99.90
42201;DHT22;27869;51.442;7.540;2023-02-28T10:13:46;1.50;99.90
42201;DHT22;27869;51.442;7.540;2023-02-28T10:16:20;1.60;99.90
42201;DHT22;27869;51.442;7.540;2023-02-28T10:18:52;1.80;99.90
42201;DHT22;27869;51.442;7.540;2023-02-28T10:21:21;1.80;99.90
42201;DHT22;27869;51.442;7.540;2023-02-28T10:23:59;2.00;99.90
42201;DHT22;27869;51.442;7.540;2023-02-28T10:26:30;2.10;99.90
42201;DHT22;27869;51.442;7.540;2023-02-28T10:28:57;2.20;99.90
42201;DHT22;27869;51.442;7.540;2023-02-28T10:31:24;2.20;99.90
42201;DHT22;27869;51.442;7.540;2023-02-28T10:33:51;2.30;99.90
42201;DHT22;27869;51.442;7.540;2023-02-28T10:36:23;2.30;99.90
42201;DHT22;27869;51.442;7.540;2023-02-28T10:38:51;2.30;99.90
42201;DHT22;27869;51.442;7.540;2023-02-28T10:41:28;2.40;99.90
42201;DHT22;27869;51.442;7.540;2023-02-28T10:44:14;2.50;99.90
42201;DHT22;27869;51.442;7.540;2023-02-28T10:46:42;2.60;99.90
42201;DHT22;27869;51.442;7.540;2023-02-28T10:49:15;2.70;99.90
42201;DHT22;27869;51.442;7.540;2023-02-28T10:51:43;2.80;99.90
42201;DHT22;27869;51.442;7.540;2023-02-28T10:54:28;2.80;99.90
42201;DHT22;27869;51.442;7.540;2023-02-28T10:57:14;2.80;99.90
42201;DHT22;27869;51.442;7.540;2023-02-28T10:59:43;2.90;99.90
42201;DHT22;27869;51.442;7.540;2023-02-28T11:02:32;2.90;99.90
42201;DHT22;27869;51.442;7.540;2023-02-28T11:04:59;2.90;99.90
42201;DHT22;27869;51.442;7.540;2023-02-28T11:07:27;2.90;99.90
42201;DHT22;27869;51.442;7.540;2023-02-28T11:09:56;3.00;99.90
42201;DHT22;27869;51.442;7.540;2023-02-28T11:12:26;3.00;99.90
42201;DHT22;27869;51.442;7.540;2023-02-28T11:14:57;3.10;99.90
42201;DHT22;27869;51.442;7.540;2023-02-28T11:17:27;3.20;99.90
42201;DHT22;27869;51.442;7.540;2023-02-28T11:19:56;3.20;99.90
42201;DHT22;27869;51.442;7.540;2023-02-28T11:22:24;3.30;99.90
42201;DHT22;27869;51.442;7.540;2023-02-28T11:24:57;3.30;99.90
42201;DHT22;27869;51.442;7.540;2023-02-28T11:27:40;3.30;99.90
42201;DHT22;27869;51.442;7.540;2023-02-28T11:30:27;3.40;99.90
42201;DHT22;27869;51.442;7.540;2023-02-28T11:32:54;3.40;99.90
42201;DHT22;27869;51.442;7.540;2023-02-28T11:35:26;3.40;99.90
42201;DHT22;27869;51.442;7.540;2023-02-28T11:37:53;3.50;99.90
42201;DHT22;27869;51.442;7.540;2023-02-28T11:40:28;3.60;99.90
42201;DHT22;27869;51.442;7.540;2023-02-28T11:43:04;3.60;99.90
42201;DHT22;27869;51.442;7.540;2023-02-28T11:45:45;3.60;99.90
42201;DHT22;27869;51.442;7.540;2023-02-28T11:48:20;3.70;99.90
42201;DHT22;27869;51.442;7.540;2023-02-28T11:51:02;3.70;99.90
42201;DHT22;27869;51.442;7.540;2023-02-28T11:53:46;3.70;99.90
42201;DHT22;27869;51.442;7.540;2023-02-28T11:56:23;3.80;99.90
42201;DHT22;27869;51.442;7.540;2023-02-28T11:59:01;3.80;99.90
42201;DHT22;27869;51.442;7.540;2023-02-28T12:01:39;3.80;99.90
42201;DHT22;27869;51.442;7.540;2023-02-28T12:04:22;3.90;99.90
42201;DHT22;27869;51.442;7.540;2023-02-28T12:06:57;3.90;99.90
42201;DHT22;27869;51.442;7.540;2023-02-28T12:09:44;4.00;99.90
42201;DHT22;27869;51.442;7.540;2023-02-28T12:12:23;4.00;99.90
42201;DHT22;27869;51.442;7.540;2023-02-28T12:15:00;3.90;99.90
42201;DHT22;27869;51.442;7.540;2023-02-28T12:17:44;4.00;99.90
42201;DHT22;27869;51.442;7.540;2023-02-28T12:22:50;4.00;99.90
42201;DHT22;27869;51.442;7.540;2023-02-28T12:25:24;4.00;99.90
42201;DHT22;27869;51.442;7.540;2023-02-28T12:27:56;4.00;99.90
42201;DHT22;27869;51.442;7.540;2023-02-28T12:30:28;4.00;99.90
42201;DHT22;27869;51.442;7.540;2023-02-28T12:33:02;4.00;99.90
42201;DHT22;27869;51.442;7.540;2023-02-28T12:35:34;4.10;99.90
42201;DHT22;27869;51.442;7.540;2023-02-28T12:38:05;4.20;99.90
42201;DHT22;27869;51.442;7.540;2023-02-28T12:40:43;4.20;99.90
42201;DHT22;27869;51.442;7.540;2023-02-28T12:43:13;4.20;99.90
42201;DHT22;27869;51.442;7.540;2023-02-28T12:45:44;4.30;99.90
42201;DHT22;27869;51.442;7.540;2023-02-28T12:48:21;4.30;99.90
42201;DHT22;27869;51.442;7.540;2023-02-28T12:50:51;4.30;99.90
42201;DHT22;27869;51.442;7.540;2023-02-28T12:53:23;4.30;99.90
42201;DHT22;27869;51.442;7.540;2023-02-28T12:56:02;4.30;99.90
42201;DHT22;27869;51.442;7.540;2023-02-28T12:58:36;4.30;99.90
42201;DHT22;27869;51.442;7.540;2023-02-28T13:01:29;4.30;99.90
42201;DHT22;27869;51.442;7.540;2023-02-28T13:07:10;4.30;99.90
42201;DHT22;27869;51.442;7.540;2023-02-28T13:09:39;4.40;99.90
42201;DHT22;27869;51.442;7.540;2023-02-28T13:12:13;4.40;99.90
42201;DHT22;27869;51.442;7.540;2023-02-28T13:14:42;4.40;99.90
42201;DHT22;27869;51.442;7.540;2023-02-28T13:17:18;4.50;99.90
42201;DHT22;27869;51.442;7.540;2023-02-28T13:19:55;4.50;99.90
42201;DHT22;27869;51.442;7.540;2023-02-28T13:22:38;4.50;99.90
42201;DHT22;27869;51.442;7.540;2023-02-28T13:28:13;4.60;99.90
42201;DHT22;27869;51.442;7.540;2023-02-28T13:31:06;4.60;99.90
42201;DHT22;27869;51.442;7.540;2023-02-28T13:33:33;4.50;99.90
42201;DHT22;27869;51.442;7.540;2023-02-28T13:36:10;4.50;99.90
42201;DHT22;27869;51.442;7.540;2023-02-28T13:38:40;4.50;99.90
42201;DHT22;27869;51.442;7.540;2023-02-28T13:44:12;4.50;99.90
42201;DHT22;27869;51.442;7.540;2023-02-28T13:49:41;4.50;99.90
42201;DHT22;27869;51.442;7.540;2023-02-28T13:52:14;4.60;99.90
42201;DHT22;27869;51.442;7.540;2023-02-28T13:54:59;4.50;99.90
42201;DHT22;27869;51.442;7.540;2023-02-28T13:57:40;4.60;99.90
42201;DHT22;27869;51.442;7.540;2023-02-28T14:00:21;4.60;99.90
42201;DHT22;27869;51.442;7.540;2023-02-28T14:03:07;4.60;99.90
42201;DHT22;27869;51.442;7.540;2023-02-28T14:05:38;4.60;99.90
42201;DHT22;27869;51.442;7.540;2023-02-28T14:08:08;4.60;99.90
42201;DHT22;27869;51.442;7.540;2023-02-28T14:10:41;4.60;99.90
42201;DHT22;27869;51.442;7.540;2023-02-28T14:13:36;4.60;99.90
42201;DHT22;27869;51.442;7.540;2023-02-28T14:16:10;4.60;99.90
42201;DHT22;27869;51.442;7.540;2023-02-28T14:18:41;4.60;99.90
42201;DHT22;27869;51.442;7.540;2023-02-28T14:21:14;4.60;99.90
42201;DHT22;27869;51.442;7.540;2023-02-28T14:27:13;4.70;99.90
42201;DHT22;27869;51.442;7.540;2023-02-28T14:30:14;4.70;99.90
42201;DHT22;27869;51.442;7.540;2023-02-28T14:32:47;4.70;99.90
42201;DHT22;27869;51.442;7.540;2023-02-28T14:35:39;4.70;99.90
42201;DHT22;27869;51.442;7.540;2023-02-28T14:38:15;4.70;99.90
42201;DHT22;27869;51.442;7.540;2023-02-28T14:40:46;4.70;99.90
42201;DHT22;27869;51.442;7.540;2023-02-28T14:43:20;4.70;99.90
42201;DHT22;27869;51.442;7.540;2023-02-28T14:45:50;4.70;99.90
42201;DHT22;27869;51.442;7.540;2023-02-28T14:48:19;4.80;99.90
42201;DHT22;27869;51.442;7.540;2023-02-28T14:50:49;4.80;99.90
42201;DHT22;27869;51.442;7.540;2023-02-28T14:53:21;4.80;99.90
42201;DHT22;27869;51.442;7.540;2023-02-28T14:55:49;4.80;99.90
42201;DHT22;27869;51.442;7.540;2023-02-28T14:58:29;4.80;99.90
42201;DHT22;27869;51.442;7.540;2023-02-28T15:00:58;4.80;99.90
42201;DHT22;27869;51.442;7.540;2023-02-28T15:03:31;4.80;99.90
42201;DHT22;27869;51.442;7.540;2023-02-28T15:06:00;4.80;99.90
42201;DHT22;27869;51.442;7.540;2023-02-28T15:08:29;4.90;99.90
42201;DHT22;27869;51.442;7.540;2023-02-28T15:11:02;4.90;99.90
42201;DHT22;27869;51.442;7.540;2023-02-28T15:13:36;4.80;99.90
42201;DHT22;27869;51.442;7.540;2023-02-28T15:16:05;4.80;99.90
42201;DHT22;27869;51.442;7.540;2023-02-28T15:18:43;4.80;99.90
42201;DHT22;27869;51.442;7.540;2023-02-28T15:21:13;4.80;99.90
42201;DHT22;27869;51.442;7.540;2023-02-28T15:23:44;4.80;99.90
42201;DHT22;27869;51.442;7.540;2023-02-28T15:26:14;4.80;99.90
42201;DHT22;27869;51.442;7.540;2023-02-28T15:28:42;4.90;99.90
42201;DHT22;27869;51.442;7.540;2023-02-28T15:31:20;4.90;99.90
42201;DHT22;27869;51.442;7.540;2023-02-28T15:33:53;4.90;99.90
42201;DHT22;27869;51.442;7.540;2023-02-28T15:36:28;4.90;99.90
42201;DHT22;27869;51.442;7.540;2023-02-28T15:38:59;5.00;99.90
42201;DHT22;27869;51.442;7.540;2023-02-28T15:41:28;5.00;99.90
42201;DHT22;27869;51.442;7.540;2023-02-28T15:44:25;5.00;99.90
42201;DHT22;27869;51.442;7.540;2023-02-28T15:46:58;5.00;99.90
42201;DHT22;27869;51.442;7.540;2023-02-28T15:49:27;5.10;99.90
42201;DHT22;27869;51.442;7.540;2023-02-28T15:51:57;5.10;99.90
42201;DHT22;27869;51.442;7.540;2023-02-28T15:54:29;5.10;99.90
42201;DHT22;27869;51.442;7.540;2023-02-28T15:57:00;5.00;99.90
42201;DHT22;27869;51.442;7.540;2023-02-28T15:59:29;5.00;99.90
42201;DHT22;27869;51.442;7.540;2023-02-28T16:02:15;5.00;99.90
42201;DHT22;27869;51.442;7.540;2023-02-28T16:04:58;5.00;99.90
42201;DHT22;27869;51.442;7.540;2023-02-28T16:07:25;4.90;99.90
42201;DHT22;27869;51.442;7.540;2023-02-28T16:09:53;4.90;99.90
42201;DHT22;27869;51.442;7.540;2023-02-28T16:12:21;4.90;99.90
42201;DHT22;27869;51.442;7.540;2023-02-28T16:14:53;4.80;99.90
42201;DHT22;27869;51.442;7.540;2023-02-28T16:17:22;4.80;99.90
42201;DHT22;27869;51.442;7.540;2023-02-28T16:19:49;4.80;99.90
42201;DHT22;27869;51.442;7.540;2023-02-28T16:22:16;4.80;99.90
42201;DHT22;27869;51.442;7.540;2023-02-28T16:24:43;4.70;99.90
42201;DHT22;27869;51.442;7.540;2023-02-28T16:27:20;4.70;99.90
42201;DHT22;27869;51.442;7.540;2023-02-28T16:29:48;4.70;99.90
42201;DHT22;27869;51.442;7.540;2023-02-28T16:32:15;4.70;99.90